createdAt,value
2023-01-11T00:01:08.788Z,-14.55
2023-01-11T00:03:35.871Z,-14.65
2023-01-11T00:06:03.082Z,-14.63
2023-01-11T00:08:30.118Z,-14.64
2023-01-11T00:10:57.255Z,-14.68
2023-01-11T00:13:24.373Z,-14.51
2023-01-11T00:15:51.731Z,-14.64
2023-01-11T00:18:18.930Z,-14.77
2023-01-11T00:20:46.000Z,-14.53
2023-01-11T00:23:13.240Z,-14.60
2023-01-11T00:25:40.510Z,-14.53
2023-01-11T00:28:07.679Z,-14.73
2023-01-11T00:30:36.027Z,-14.71
2023-01-11T00:33:03.028Z,-14.53
2023-01-11T00:35:32.048Z,-14.54
2023-01-11T00:37:59.437Z,-14.49
2023-01-11T00:40:27.214Z,-14.53
2023-01-11T00:43:12.764Z,-14.71
2023-01-11T00:45:58.603Z,-14.47
2023-01-11T00:48:25.899Z,-14.66
2023-01-11T00:50:55.322Z,-14.44
2023-01-11T00:53:22.621Z,-14.47
2023-01-11T00:55:49.893Z,-14.63
2023-01-11T00:58:16.860Z,-14.48
2023-01-11T01:00:44.115Z,-14.64
2023-01-11T01:03:14.597Z,-14.74
2023-01-11T01:05:41.662Z,-14.55
2023-01-11T01:08:08.925Z,-14.68
2023-01-11T01:10:36.163Z,-14.57
2023-01-11T01:13:25.005Z,-14.71
2023-01-11T01:15:57.801Z,-14.53
2023-01-11T01:18:24.949Z,-14.48
2023-01-11T01:20:51.997Z,-14.57
2023-01-11T01:23:19.039Z,-14.70
2023-01-11T01:25:46.060Z,-14.49
2023-01-11T01:28:13.127Z,-14.50
2023-01-11T01:30:41.382Z,-14.44
2023-01-11T01:33:08.515Z,-14.45
2023-01-11T01:35:38.287Z,-14.39
2023-01-11T01:38:05.302Z,-14.39
2023-01-11T01:40:32.363Z,-14.49
2023-01-11T01:42:59.349Z,-14.34
2023-01-11T01:45:28.991Z,-14.36
2023-01-11T01:48:02.714Z,-14.35
2023-01-11T01:50:53.701Z,-14.37
2023-01-11T01:53:25.932Z,-14.34
2023-01-11T01:55:57.410Z,-14.33
2023-01-11T01:58:30.460Z,-14.37
2023-01-11T02:00:57.413Z,-14.34
2023-01-11T02:03:27.166Z,-14.55
2023-01-11T02:05:54.479Z,-14.43
2023-01-11T02:08:29.506Z,-14.38
2023-01-11T02:10:57.256Z,-14.66
2023-01-11T02:13:24.511Z,-14.39
2023-01-11T02:16:07.867Z,-14.65
2023-01-11T02:18:36.797Z,-14.46
2023-01-11T02:21:09.762Z,-14.44
2023-01-11T02:24:09.044Z,-14.44
2023-01-11T02:27:11.811Z,-14.42
2023-01-11T02:29:59.115Z,-14.63
2023-01-11T02:32:49.902Z,-14.53
2023-01-11T02:35:38.662Z,-14.47
2023-01-11T02:38:20.535Z,-14.52
2023-01-11T02:41:13.705Z,-14.53
2023-01-11T02:44:19.181Z,-14.51
2023-01-11T02:46:46.245Z,-14.47
2023-01-11T02:49:36.007Z,-14.43
2023-01-11T02:52:22.297Z,-14.62
2023-01-11T02:54:55.754Z,-14.68
2023-01-11T02:57:24.854Z,-14.48
2023-01-11T02:59:58.614Z,-14.74
2023-01-11T03:02:25.670Z,-14.52
2023-01-11T03:04:52.844Z,-14.55
2023-01-11T03:07:28.576Z,-14.45
2023-01-11T03:10:18.799Z,-14.55
2023-01-11T03:13:04.226Z,-14.42
2023-01-11T03:15:59.985Z,-14.39
2023-01-11T03:18:30.128Z,-14.47
2023-01-11T03:21:17.303Z,-14.64
2023-01-11T03:24:01.028Z,-14.79
2023-01-11T03:26:41.504Z,-14.61
2023-01-11T03:29:36.152Z,-14.39
2023-01-11T03:32:11.666Z,-14.37
2023-01-11T03:34:49.138Z,-14.69
2023-01-11T03:37:27.058Z,-14.45
2023-01-11T03:40:09.290Z,-14.92
2023-01-11T03:42:59.766Z,-14.50
2023-01-11T03:45:28.177Z,-14.54
2023-01-11T03:47:56.899Z,-14.58
2023-01-11T03:50:26.976Z,-14.58
2023-01-11T03:52:57.842Z,-14.90
2023-01-11T03:55:29.833Z,-14.79
2023-01-11T03:58:01.470Z,-14.74
2023-01-11T04:00:30.740Z,-15.10
2023-01-11T04:03:00.959Z,-14.57
2023-01-11T04:05:28.431Z,-14.52
2023-01-11T04:07:55.626Z,-14.56
2023-01-11T04:10:22.639Z,-14.54
2023-01-11T04:12:50.026Z,-14.53
2023-01-11T04:15:17.511Z,-14.56
2023-01-11T04:17:44.702Z,-14.49
2023-01-11T04:20:13.101Z,-14.48
2023-01-11T04:22:40.133Z,-14.48
2023-01-11T04:25:09.138Z,-14.55
2023-01-11T04:27:36.512Z,-14.96
2023-01-11T04:30:04.405Z,-14.83
2023-01-11T04:32:31.689Z,-14.69
2023-01-11T04:34:58.743Z,-14.56
2023-01-11T04:37:25.872Z,-14.65
2023-01-11T04:39:52.925Z,-14.45
2023-01-11T04:42:19.948Z,-14.45
2023-01-11T04:44:49.555Z,-14.63
2023-01-11T04:47:18.587Z,-14.40
2023-01-11T04:49:46.353Z,-14.50
2023-01-11T04:52:14.972Z,-14.60
2023-01-11T04:54:41.961Z,-14.44
2023-01-11T04:57:13.405Z,-14.43
2023-01-11T04:59:40.811Z,-14.49
2023-01-11T05:02:08.070Z,-14.59
2023-01-11T05:04:35.203Z,-15.09
2023-01-11T05:07:02.490Z,-15.04
2023-01-11T05:09:29.690Z,-14.80
2023-01-11T05:11:56.763Z,-14.38
2023-01-11T05:14:23.899Z,-14.36
2023-01-11T05:16:51.164Z,-14.44
2023-01-11T05:19:18.451Z,-14.39
2023-01-11T05:21:45.496Z,-14.76
2023-01-11T05:24:14.719Z,-14.43
2023-01-11T05:26:44.306Z,-14.49
2023-01-11T05:29:14.279Z,-14.44
2023-01-11T05:31:41.956Z,-14.42
2023-01-11T05:34:13.439Z,-14.47
2023-01-11T05:36:41.470Z,-14.43
2023-01-11T05:39:09.116Z,-14.60
2023-01-11T05:41:36.662Z,-14.39
2023-01-11T05:44:23.078Z,-14.50
2023-01-11T05:46:50.253Z,-14.35
2023-01-11T05:49:17.287Z,-14.44
2023-01-11T05:51:44.666Z,-14.34
2023-01-11T05:54:14.508Z,-14.58
2023-01-11T05:56:45.180Z,-14.30
2023-01-11T05:59:12.269Z,-14.45
2023-01-11T06:01:39.417Z,-14.47
2023-01-11T06:04:08.556Z,-14.27
2023-01-11T06:06:35.834Z,-14.25
2023-01-11T06:09:02.995Z,-14.21
2023-01-11T06:11:30.048Z,-14.17
2023-01-11T06:13:59.136Z,-14.33
2023-01-11T06:16:26.237Z,-14.12
2023-01-11T06:18:54.437Z,-14.21
2023-01-11T06:21:21.838Z,-14.11
2023-01-11T06:23:51.132Z,-14.05
2023-01-11T06:26:21.604Z,-13.93
2023-01-11T06:28:49.222Z,-13.98
2023-01-11T06:31:17.946Z,-14.04
2023-01-11T06:33:46.301Z,-13.90
2023-01-11T06:36:14.515Z,-14.10
2023-01-11T06:38:42.598Z,-13.89
2023-01-11T06:41:11.162Z,-13.84
2023-01-11T06:43:41.856Z,-13.84
2023-01-11T06:46:14.314Z,-13.86
2023-01-11T06:48:42.147Z,-13.77
2023-01-11T06:51:12.244Z,-13.64
2023-01-11T06:53:40.584Z,-13.65
2023-01-11T06:56:14.197Z,-13.77
2023-01-11T06:58:41.385Z,-13.62
2023-01-11T07:01:08.604Z,-13.67
2023-01-11T07:03:35.776Z,-13.65
2023-01-11T07:06:04.488Z,-13.76
2023-01-11T07:08:31.560Z,-13.61
2023-01-11T07:10:58.694Z,-13.40
2023-01-11T07:13:25.743Z,-13.68
2023-01-11T07:15:54.362Z,-13.29
2023-01-11T07:18:21.816Z,-13.38
2023-01-11T07:20:50.928Z,-13.21
2023-01-11T07:23:17.970Z,-13.20
2023-01-11T07:25:44.977Z,-13.23
2023-01-11T07:28:11.983Z,-13.25
2023-01-11T07:30:56.071Z,-13.22
2023-01-11T07:33:25.149Z,-13.16
2023-01-11T07:35:52.352Z,-13.04
2023-01-11T07:38:19.667Z,-13.01
2023-01-11T07:40:46.814Z,-13.07
2023-01-11T07:43:15.200Z,-13.04
2023-01-11T07:45:46.381Z,-12.95
2023-01-11T07:48:15.801Z,-12.91
2023-01-11T07:50:45.024Z,-13.05
2023-01-11T07:53:13.258Z,-12.90
2023-01-11T07:55:41.078Z,-12.85
2023-01-11T07:58:15.239Z,-12.94
2023-01-11T08:00:42.734Z,-13.00
2023-01-11T08:03:17.125Z,-12.94
2023-01-11T08:05:44.190Z,-12.78
2023-01-11T08:08:11.361Z,-12.86
2023-01-11T08:10:40.339Z,-12.77
2023-01-11T08:13:32.091Z,-12.72
2023-01-11T08:15:59.734Z,-12.78
2023-01-11T08:18:27.057Z,-12.68
2023-01-11T08:20:54.199Z,-12.67
2023-01-11T08:23:21.286Z,-12.75
2023-01-11T08:25:48.383Z,-12.64
2023-01-11T08:28:15.447Z,-12.64
2023-01-11T08:30:42.829Z,-12.68
2023-01-11T08:33:10.382Z,-12.64
2023-01-11T08:35:39.191Z,-12.69
2023-01-11T08:38:06.578Z,-12.68
2023-01-11T08:40:33.650Z,-12.53
2023-01-11T08:43:00.702Z,-12.48
2023-01-11T08:45:28.172Z,-12.46
2023-01-11T08:47:55.566Z,-12.60
2023-01-11T08:50:22.815Z,-12.30
2023-01-11T08:52:51.447Z,-12.35
2023-01-11T08:55:19.503Z,-12.34
2023-01-11T08:57:47.131Z,-12.36
2023-01-11T09:00:14.995Z,-12.39
2023-01-11T09:02:42.429Z,-12.34
2023-01-11T09:05:10.075Z,-12.27
2023-01-11T09:07:37.281Z,-12.28
2023-01-11T09:10:05.224Z,-12.22
2023-01-11T09:12:32.975Z,-12.24
2023-01-11T09:15:00.500Z,-12.32
2023-01-11T09:17:27.906Z,-12.17
2023-01-11T09:19:55.139Z,-12.08
2023-01-11T09:22:22.204Z,-12.05
2023-01-11T09:24:49.361Z,-12.12
2023-01-11T09:27:16.693Z,-11.98
2023-01-11T09:29:43.932Z,-12.11
2023-01-11T09:32:10.957Z,-12.01
2023-01-11T09:34:38.124Z,-11.89
2023-01-11T09:37:07.114Z,-11.90
2023-01-11T09:39:35.232Z,-12.18
2023-01-11T09:42:32.486Z,-11.87
2023-01-11T09:45:11.210Z,-11.82
2023-01-11T09:48:13.089Z,-11.74
2023-01-11T09:50:45.728Z,-11.89
2023-01-11T09:53:22.600Z,-11.69
2023-01-11T09:55:52.302Z,-11.61
2023-01-11T09:58:38.030Z,-11.59
2023-01-11T10:01:25.113Z,-11.65
2023-01-11T10:04:16.053Z,-11.61
2023-01-11T10:06:46.075Z,-11.59
2023-01-11T10:18:33.343Z,-11.70
2023-01-11T10:18:34.381Z,-11.69
2023-01-11T10:21:11.218Z,-11.66
2023-01-11T10:23:50.437Z,-11.67
2023-01-11T10:26:29.497Z,-11.90
2023-01-11T10:29:22.425Z,-11.78
2023-01-11T10:32:31.871Z,-11.86
2023-01-11T10:35:18.158Z,-11.52
2023-01-11T10:38:05.938Z,-11.63
2023-01-11T10:41:02.589Z,-11.39
2023-01-11T10:43:33.854Z,-11.44
2023-01-11T10:46:16.860Z,-11.37
2023-01-11T10:48:46.147Z,-11.39
2023-01-11T10:51:29.503Z,-11.38
2023-01-11T10:54:24.395Z,-11.46
2023-01-11T10:57:14.255Z,-11.51
2023-01-11T11:00:00.274Z,-11.50
2023-01-11T11:03:02.436Z,-11.58
2023-01-11T11:05:41.118Z,-11.63
2023-01-11T11:08:19.827Z,-11.63
2023-01-11T11:11:15.749Z,-11.62
2023-01-11T11:13:54.888Z,-11.58
2023-01-11T11:16:25.009Z,-11.59
2023-01-11T11:18:55.835Z,-11.63
2023-01-11T11:21:38.516Z,-11.68
2023-01-11T11:24:17.725Z,-11.72
2023-01-11T11:26:49.588Z,-11.65
2023-01-11T11:29:23.443Z,-11.64
2023-01-11T11:31:51.383Z,-11.65
2023-01-11T11:34:21.119Z,-11.78
2023-01-11T11:36:51.724Z,-11.61
2023-01-11T11:39:31.753Z,-11.58
2023-01-11T11:42:06.415Z,-11.57
2023-01-11T11:44:33.823Z,-12.04
2023-01-11T11:47:15.886Z,-11.72
2023-01-11T11:49:43.449Z,-11.59
2023-01-11T11:52:17.836Z,-11.55
2023-01-11T11:54:59.338Z,-11.73
2023-01-11T11:57:33.901Z,-11.54
2023-01-11T12:00:09.234Z,-11.53
2023-01-11T12:02:45.257Z,-11.57
2023-01-11T12:05:12.578Z,-11.55
2023-01-11T12:07:55.078Z,-11.57
2023-01-11T12:10:32.282Z,-11.50
2023-01-11T12:13:01.571Z,-11.57
2023-01-11T12:15:30.510Z,-11.41
2023-01-11T12:18:22.387Z,-11.38
2023-01-11T12:20:49.793Z,-11.41
2023-01-11T12:23:24.291Z,-11.50
2023-01-11T12:26:12.740Z,-11.38
2023-01-11T12:29:09.350Z,-11.36
2023-01-11T12:31:39.396Z,-11.36
2023-01-11T12:34:15.295Z,-11.34
2023-01-11T12:37:23.490Z,-11.34
2023-01-11T12:40:02.425Z,-11.40
2023-01-11T12:42:45.442Z,-11.34
2023-01-11T12:45:27.925Z,-11.86
2023-01-11T12:47:58.185Z,-11.29
2023-01-11T12:51:03.632Z,-11.25
2023-01-11T12:53:30.819Z,-11.27
2023-01-11T12:56:33.317Z,-11.24
2023-01-11T12:59:14.700Z,-11.22
2023-01-11T13:01:44.343Z,-11.24
2023-01-11T13:04:33.328Z,-11.33
2023-01-11T13:07:18.794Z,-11.19
2023-01-11T13:10:03.185Z,-11.30
2023-01-11T13:12:49.909Z,-11.18
2023-01-11T13:15:35.451Z,-11.14
2023-01-11T13:18:14.821Z,-11.14
2023-01-11T13:21:01.869Z,-11.44
2023-01-11T13:23:48.637Z,-11.25
2023-01-11T13:26:25.366Z,-11.13
2023-01-11T13:29:02.468Z,-11.46
2023-01-11T13:31:32.378Z,-11.27
2023-01-11T13:34:26.719Z,-11.12
2023-01-11T13:37:26.266Z,-11.12
2023-01-11T13:40:17.717Z,-11.11
2023-01-11T13:42:50.801Z,-11.10
2023-01-11T13:45:36.401Z,-11.08
2023-01-11T13:48:12.332Z,-11.16
2023-01-11T13:51:08.186Z,-11.05
2023-01-11T13:53:44.114Z,-11.07
2023-01-11T13:56:20.523Z,-11.02
2023-01-11T13:58:58.388Z,-11.01
2023-01-11T14:01:40.555Z,-11.06
2023-01-11T14:04:47.169Z,-11.03
2023-01-11T14:07:20.712Z,-11.18
2023-01-11T14:10:06.458Z,-11.10
2023-01-11T14:13:12.280Z,-11.08
2023-01-11T14:15:58.555Z,-11.11
2023-01-11T14:18:33.255Z,-11.12
2023-01-11T14:21:15.381Z,-11.14
2023-01-11T14:23:55.324Z,-11.41
2023-01-11T14:26:44.007Z,-11.15
2023-01-11T14:29:29.586Z,-11.19
2023-01-11T14:32:26.957Z,-11.16
2023-01-11T14:35:23.364Z,-11.21
2023-01-11T14:38:02.676Z,-11.40
2023-01-11T14:40:38.687Z,-11.30
2023-01-11T14:43:38.113Z,-11.28
2023-01-11T14:46:33.362Z,-11.30
2023-01-11T14:49:15.740Z,-11.30
2023-01-11T14:52:03.976Z,-11.31
2023-01-11T14:54:35.452Z,-11.36
2023-01-11T14:57:02.683Z,-11.42
2023-01-11T14:59:35.897Z,-11.33
2023-01-11T15:02:06.227Z,-11.39
2023-01-11T15:04:59.272Z,-11.38
2023-01-11T15:07:29.328Z,-11.40
2023-01-11T15:09:58.097Z,-11.40
2023-01-11T15:12:25.221Z,-11.43
2023-01-11T15:15:17.266Z,-11.43
2023-01-11T15:18:03.984Z,-11.65
2023-01-11T15:20:36.677Z,-11.50
2023-01-11T15:23:07.054Z,-11.67
2023-01-11T15:25:35.285Z,-11.51
2023-01-11T15:28:24.811Z,-11.62
2023-01-11T15:30:52.502Z,-11.50
2023-01-11T15:33:19.762Z,-11.47
2023-01-11T15:35:56.127Z,-11.43
2023-01-11T15:38:49.359Z,-11.42
2023-01-11T15:41:57.729Z,-11.65
2023-01-11T15:44:55.975Z,-11.41
2023-01-11T15:47:46.499Z,-11.35
2023-01-11T15:50:42.833Z,-11.34
2023-01-11T15:53:41.325Z,-11.31
2023-01-11T15:56:42.434Z,-11.27
2023-01-11T15:59:38.132Z,-11.25
2023-01-11T16:02:21.913Z,-11.21
2023-01-11T16:04:54.299Z,-11.28
2023-01-11T16:07:52.355Z,-11.17
2023-01-11T16:10:44.197Z,-11.13
2023-01-11T16:13:24.184Z,-11.15
2023-01-11T16:15:51.173Z,-11.06
2023-01-11T16:18:47.864Z,-11.02
2023-01-11T16:21:29.184Z,-11.02
2023-01-11T16:23:57.570Z,-11.02
2023-01-11T16:26:28.744Z,-11.05
2023-01-11T16:29:23.162Z,-10.91
2023-01-11T16:32:01.030Z,-10.91
2023-01-11T16:34:30.729Z,-10.89
2023-01-11T16:36:58.581Z,-10.95
2023-01-11T16:39:29.731Z,-10.96
2023-01-11T16:42:06.297Z,-10.87
2023-01-11T16:45:20.509Z,-10.90
2023-01-11T16:48:04.122Z,-10.88
2023-01-11T16:50:32.182Z,-10.84
2023-01-11T16:53:01.197Z,-11.06
2023-01-11T16:55:38.100Z,-10.97
2023-01-11T16:58:17.590Z,-10.84
2023-01-11T17:01:18.005Z,-10.82
2023-01-11T17:03:51.385Z,-10.82
2023-01-11T17:06:21.864Z,-10.84
2023-01-11T17:08:52.621Z,-10.84
2023-01-11T17:11:37.364Z,-10.82
2023-01-11T17:14:42.081Z,-10.80
2023-01-11T17:17:12.532Z,-10.82
2023-01-11T17:19:46.920Z,-10.76
2023-01-11T17:22:25.195Z,-10.73
2023-01-11T17:24:57.629Z,-10.67
2023-01-11T17:27:35.785Z,-10.68
2023-01-11T17:30:05.847Z,-10.65
2023-01-11T17:32:36.967Z,-10.67
2023-01-11T17:35:07.642Z,-10.76
2023-01-11T17:37:42.306Z,-10.71
2023-01-11T17:40:47.280Z,-10.61
2023-01-11T17:43:47.312Z,-10.60
2023-01-11T17:46:18.983Z,-10.83
2023-01-11T17:48:56.686Z,-10.59
2023-01-11T17:51:31.680Z,-10.77
2023-01-11T17:54:01.440Z,-10.61
2023-01-11T17:56:38.243Z,-10.57
2023-01-11T17:59:23.686Z,-10.58
2023-01-11T18:02:03.008Z,-10.99
2023-01-11T18:04:31.956Z,-10.56
2023-01-11T18:07:19.583Z,-10.56
2023-01-11T18:09:50.549Z,-10.54
2023-01-11T18:12:26.098Z,-10.62
2023-01-11T18:14:57.384Z,-10.62
2023-01-11T18:17:30.841Z,-10.51
2023-01-11T18:20:05.406Z,-10.71
2023-01-11T18:22:40.748Z,-10.53
2023-01-11T18:25:21.736Z,-10.51
2023-01-11T18:27:49.782Z,-10.52
2023-01-11T18:30:32.478Z,-10.47
2023-01-11T18:33:02.401Z,-10.63
2023-01-11T18:35:30.972Z,-10.52
2023-01-11T18:37:58.163Z,-10.46
2023-01-11T18:40:25.333Z,-10.44
2023-01-11T18:42:54.018Z,-10.44
2023-01-11T18:45:22.107Z,-10.47
2023-01-11T18:47:49.401Z,-10.57
2023-01-11T18:50:19.445Z,-10.39
2023-01-11T18:52:47.065Z,-10.49
2023-01-11T18:55:15.197Z,-10.44
2023-01-11T18:57:42.623Z,-10.43
2023-01-11T19:00:15.603Z,-10.54
2023-01-11T19:02:44.606Z,-10.38
2023-01-11T19:05:14.651Z,-10.39
2023-01-11T19:07:42.353Z,-10.56
2023-01-11T19:10:11.073Z,-10.47
2023-01-11T19:12:38.193Z,-10.37
2023-01-11T19:15:05.732Z,-10.37
2023-01-11T19:17:33.322Z,-10.52
2023-01-11T19:20:00.591Z,-10.34
2023-01-11T19:22:27.646Z,-10.30
2023-01-11T19:24:55.174Z,-10.29
2023-01-11T19:27:23.104Z,-10.31
2023-01-11T19:29:50.251Z,-10.27
2023-01-11T19:32:18.638Z,-10.29
2023-01-11T19:34:45.761Z,-10.28
2023-01-11T19:37:12.786Z,-10.32
2023-01-11T19:39:40.417Z,-10.29
2023-01-11T19:42:07.661Z,-10.25
2023-01-11T19:44:38.981Z,-10.21
2023-01-11T19:47:12.739Z,-10.26
2023-01-11T19:49:41.270Z,-10.25
2023-01-11T19:52:12.908Z,-10.36
2023-01-11T19:54:42.507Z,-10.28
2023-01-11T19:57:20.689Z,-10.23
2023-01-11T19:59:49.709Z,-10.25
2023-01-11T20:02:19.699Z,-10.32
2023-01-11T20:04:48.028Z,-10.79
2023-01-11T20:07:15.689Z,-10.51
2023-01-11T20:09:43.024Z,-10.40
2023-01-11T20:12:12.249Z,-10.33
2023-01-11T20:14:40.838Z,-10.45
2023-01-11T20:17:08.746Z,-10.44
2023-01-11T20:19:35.999Z,-10.50
2023-01-11T20:22:03.353Z,-10.32
2023-01-11T20:24:31.836Z,-10.30
2023-01-11T20:27:01.224Z,-10.47
2023-01-11T20:29:28.833Z,-10.34
2023-01-11T20:31:58.188Z,-10.41
2023-01-11T20:34:30.400Z,-10.29
2023-01-11T20:36:57.435Z,-10.28
2023-01-11T20:39:26.208Z,-10.47
2023-01-11T20:41:54.218Z,-10.40
2023-01-11T20:44:24.094Z,-10.42
2023-01-11T20:46:53.085Z,-10.50
2023-01-11T20:49:23.690Z,-10.32
2023-01-11T20:51:50.903Z,-10.79
2023-01-11T20:54:19.071Z,-10.66
2023-01-11T20:56:52.105Z,-10.51
2023-01-11T20:59:20.479Z,-10.25
2023-01-11T21:01:49.147Z,-10.23
2023-01-11T21:04:17.660Z,-10.35
2023-01-11T21:06:47.643Z,-10.46
2023-01-11T21:09:16.468Z,-10.18
2023-01-11T21:11:44.227Z,-10.18
2023-01-11T21:14:14.168Z,-10.17
2023-01-11T21:16:43.120Z,-10.19
2023-01-11T21:19:15.168Z,-10.54
2023-01-11T21:21:42.870Z,-10.30
2023-01-11T21:24:14.958Z,-10.20
2023-01-11T21:26:43.786Z,-10.18
2023-01-11T21:29:12.050Z,-10.16
2023-01-11T21:31:39.681Z,-10.43
2023-01-11T21:34:07.577Z,-10.23
2023-01-11T21:36:34.710Z,-10.28
2023-01-11T21:39:05.966Z,-10.28
2023-01-11T21:41:52.708Z,-10.12
2023-01-11T21:44:21.068Z,-10.11
2023-01-11T21:49:58.540Z,-10.45
2023-01-11T21:52:26.443Z,-11.21
2023-01-11T21:58:35.427Z,-10.81
2023-01-11T22:01:11.191Z,-10.76
2023-01-11T22:03:39.414Z,-10.05
2023-01-11T22:06:06.863Z,-10.01
2023-01-11T22:08:38.544Z,-10.01
2023-01-11T22:11:06.734Z,-10.18
2023-01-11T22:13:35.871Z,-10.09
2023-01-11T22:16:23.404Z,-9.92
2023-01-11T22:18:50.437Z,-10.32
2023-01-11T22:21:19.983Z,-9.88
2023-01-11T22:23:48.344Z,-10.01
2023-01-11T22:26:17.538Z,-10.17
2023-01-11T22:29:05.192Z,-9.86
2023-01-11T22:31:34.059Z,-10.04
2023-01-11T22:34:01.526Z,-9.86
2023-01-11T22:36:29.192Z,-10.43
2023-01-11T22:39:12.011Z,-10.26
2023-01-11T22:41:45.553Z,-10.35
2023-01-11T22:44:12.967Z,-9.90
2023-01-11T22:46:40.260Z,-9.81
2023-01-11T22:49:08.065Z,-9.95
2023-01-11T22:51:36.073Z,-9.98
2023-01-11T22:54:04.507Z,-9.80
2023-01-11T22:56:32.245Z,-9.97
2023-01-11T22:58:59.787Z,-10.02
2023-01-11T23:01:28.029Z,-10.01
2023-01-11T23:03:56.613Z,-10.09
2023-01-11T23:06:29.488Z,-9.99
2023-01-11T23:08:57.318Z,-9.81
2023-01-11T23:11:45.603Z,-9.89
2023-01-11T23:14:20.280Z,-10.19
2023-01-11T23:16:50.653Z,-10.02
2023-01-11T23:19:20.258Z,-9.87
2023-01-11T23:21:48.119Z,-10.31
2023-01-11T23:24:16.911Z,-9.88
2023-01-11T23:26:45.219Z,-9.89
2023-01-11T23:29:12.912Z,-9.77
2023-01-11T23:31:40.106Z,-9.97
2023-01-11T23:34:08.600Z,-9.80
2023-01-11T23:36:42.973Z,-9.76
2023-01-11T23:39:14.842Z,-9.96
2023-01-11T23:42:00.838Z,-10.04
2023-01-11T23:44:28.003Z,-9.84
2023-01-11T23:47:13.608Z,-9.83
2023-01-11T23:49:40.929Z,-10.08
2023-01-11T23:52:08.439Z,-9.92
2023-01-11T23:54:35.669Z,-10.27
2023-01-11T23:57:04.079Z,-9.84
2023-01-11T23:59:31.857Z,-9.91
